createdAt,value
2017-04-13T00:00:42.686Z,0
2017-04-13T00:01:43.282Z,0
2017-04-13T00:02:41.359Z,0
2017-04-13T00:03:42.297Z,0
2017-04-13T00:04:41.938Z,0
2017-04-13T00:05:42.253Z,0
2017-04-13T00:06:41.953Z,0
2017-04-13T00:07:42.260Z,0
2017-04-13T00:08:42.269Z,0
2017-04-13T00:09:42.324Z,0
2017-04-13T00:10:42.324Z,0
2017-04-13T00:11:42.279Z,0
2017-04-13T00:12:42.288Z,0
2017-04-13T00:13:42.029Z,0
2017-04-13T00:14:42.380Z,0
2017-04-13T00:15:42.301Z,0
2017-04-13T00:16:41.987Z,0
2017-04-13T00:17:42.306Z,0
2017-04-13T00:18:41.998Z,0
2017-04-13T00:19:42.000Z,0
2017-04-13T00:20:42.371Z,0
2017-04-13T00:22:11.486Z,0
2017-04-13T00:22:42.058Z,0
2017-04-13T00:23:42.058Z,0
2017-04-13T00:24:42.066Z,0
2017-04-13T00:25:42.432Z,0
2017-04-13T00:29:57.018Z,0
2017-04-13T00:30:31.661Z,0
2017-04-13T00:31:31.662Z,0
2017-04-13T00:32:31.666Z,0
2017-04-13T00:33:31.361Z,0
2017-04-13T00:34:31.673Z,0
2017-04-13T00:35:31.418Z,0
2017-04-13T00:36:31.367Z,0
2017-04-13T00:37:31.684Z,0
2017-04-13T00:38:31.688Z,0
2017-04-13T00:39:31.378Z,0
2017-04-13T00:40:32.851Z,0
2017-04-13T00:41:31.384Z,0
2017-04-13T00:42:31.707Z,0
2017-04-13T00:43:31.716Z,0
2017-04-13T00:44:31.719Z,0
2017-04-13T00:45:31.410Z,0
2017-04-13T00:46:31.414Z,0
2017-04-13T00:47:31.782Z,0
2017-04-13T00:48:31.732Z,0
2017-04-13T00:49:31.424Z,0
2017-04-13T00:50:31.894Z,0
2017-04-13T00:51:31.789Z,0
2017-04-13T00:52:31.761Z,0
2017-04-13T00:53:31.489Z,0
2017-04-13T00:54:31.805Z,0
2017-04-13T00:55:31.132Z,0
2017-04-13T00:56:31.812Z,0
2017-04-13T00:57:31.765Z,0
2017-04-13T00:58:31.769Z,0
2017-04-13T00:59:31.466Z,0
2017-04-13T01:00:31.771Z,0
2017-04-13T01:01:31.166Z,0
2017-04-13T01:02:31.981Z,0
2017-04-13T01:03:31.470Z,0
2017-04-13T01:04:31.784Z,0
2017-04-13T01:05:31.794Z,0
2017-04-13T01:06:31.531Z,0
2017-04-13T01:07:31.891Z,0
2017-04-13T01:08:31.180Z,0
2017-04-13T01:09:31.541Z,0
2017-04-13T01:10:31.847Z,0
2017-04-13T01:11:31.812Z,0
2017-04-13T01:12:31.504Z,0
2017-04-13T01:13:31.817Z,0
2017-04-13T01:14:31.822Z,0
2017-04-13T01:15:31.517Z,0
2017-04-13T01:16:31.830Z,0
2017-04-13T01:17:31.885Z,0
2017-04-13T01:18:33.236Z,0
2017-04-13T01:19:31.532Z,0
2017-04-13T01:20:31.856Z,0
2017-04-13T01:21:31.848Z,0
2017-04-13T01:22:31.854Z,0
2017-04-13T01:23:31.547Z,0
2017-04-13T01:24:31.873Z,0
2017-04-13T01:25:31.873Z,0
2017-04-13T01:26:32.961Z,0
2017-04-13T01:27:31.877Z,0
2017-04-13T01:28:31.882Z,0
2017-04-13T01:29:32.195Z,0
2017-04-13T01:30:32.140Z,0
2017-04-13T01:31:31.270Z,0
2017-04-13T01:32:31.898Z,0
2017-04-13T01:33:31.602Z,0
2017-04-13T01:34:31.899Z,0
2017-04-13T01:35:31.643Z,0
2017-04-13T01:36:31.644Z,0
2017-04-13T01:37:31.910Z,0
2017-04-13T01:38:31.613Z,0
2017-04-13T01:39:31.612Z,0
2017-04-13T01:40:31.920Z,0
2017-04-13T01:41:31.930Z,0
2017-04-13T01:42:31.936Z,0
2017-04-13T01:43:31.939Z,0
2017-04-13T01:44:31.625Z,0
2017-04-13T01:45:31.731Z,0
2017-04-13T01:46:31.947Z,0
2017-04-13T01:47:32.046Z,0
2017-04-13T01:48:31.952Z,0
2017-04-13T01:49:31.645Z,0
2017-04-13T01:50:31.966Z,0
2017-04-13T01:51:31.968Z,0
2017-04-13T01:52:31.653Z,0
2017-04-13T01:53:32.377Z,0
2017-04-13T01:54:31.972Z,0
2017-04-13T01:55:31.979Z,0
2017-04-13T01:56:31.990Z,0
2017-04-13T01:57:32.043Z,0
2017-04-13T01:58:31.991Z,0
2017-04-13T01:59:31.995Z,0
2017-04-13T02:00:31.996Z,0
2017-04-13T02:01:31.688Z,0
2017-04-13T02:02:32.002Z,0
2017-04-13T02:03:32.008Z,0
2017-04-13T02:04:31.743Z,0
2017-04-13T02:05:32.011Z,0
2017-04-13T02:06:32.071Z,0
2017-04-13T02:07:32.025Z,0
2017-04-13T02:08:32.025Z,0
2017-04-13T02:09:32.037Z,0
2017-04-13T02:10:32.039Z,0
2017-04-13T02:11:31.727Z,0
2017-04-13T02:12:32.045Z,0
2017-04-13T02:13:32.052Z,0
2017-04-13T02:14:31.749Z,0
2017-04-13T02:15:32.055Z,0
2017-04-13T02:16:32.063Z,0
2017-04-13T02:17:31.757Z,0
2017-04-13T02:18:31.805Z,0
2017-04-13T02:19:32.075Z,0
2017-04-13T02:20:31.772Z,0
2017-04-13T02:21:33.178Z,0
2017-04-13T02:22:32.089Z,0
2017-04-13T02:23:32.089Z,0
2017-04-13T02:24:32.089Z,0
2017-04-13T02:25:32.087Z,0
2017-04-13T02:26:31.793Z,0
2017-04-13T02:27:32.101Z,0
2017-04-13T02:28:32.156Z,0
2017-04-13T02:29:31.800Z,0
2017-04-13T02:30:31.803Z,0
2017-04-13T02:31:32.114Z,0
2017-04-13T02:32:32.115Z,0
2017-04-13T02:33:32.120Z,0
2017-04-13T02:34:31.858Z,0
2017-04-13T02:35:32.125Z,0
2017-04-13T02:36:31.820Z,0
2017-04-13T02:37:31.824Z,0
2017-04-13T02:38:32.148Z,0
2017-04-13T02:39:32.138Z,0
2017-04-13T02:40:32.153Z,0
2017-04-13T02:41:31.844Z,0
2017-04-13T02:42:32.253Z,0
2017-04-13T02:43:32.158Z,0
2017-04-13T02:44:32.165Z,0
2017-04-13T02:45:32.164Z,0
2017-04-13T02:46:32.165Z,0
2017-04-13T02:47:32.218Z,0
2017-04-13T02:48:32.172Z,0
2017-04-13T02:49:32.884Z,0
2017-04-13T02:50:31.873Z,0
2017-04-13T02:51:31.876Z,0
2017-04-13T02:52:32.256Z,0
2017-04-13T02:53:31.883Z,0
2017-04-13T02:54:32.198Z,0
2017-04-13T02:55:32.205Z,0
2017-04-13T02:56:31.902Z,0
2017-04-13T02:57:32.208Z,0
2017-04-13T02:58:32.218Z,0
2017-04-13T02:59:32.229Z,0
2017-04-13T03:00:32.227Z,0
2017-04-13T03:01:31.921Z,0
2017-04-13T03:02:31.663Z,0
2017-04-13T03:03:32.239Z,0
2017-04-13T03:04:32.239Z,0
2017-04-13T03:05:32.292Z,0
2017-04-13T03:06:31.632Z,0
2017-04-13T03:07:32.258Z,0
2017-04-13T03:08:32.254Z,0
2017-04-13T03:09:31.994Z,0
2017-04-13T03:10:32.261Z,0
2017-04-13T03:11:32.273Z,0
2017-04-13T03:12:31.958Z,0
2017-04-13T03:13:31.964Z,0
2017-04-13T03:14:31.971Z,0
2017-04-13T03:15:31.973Z,0
2017-04-13T03:16:32.587Z,0
2017-04-13T03:17:32.294Z,0
2017-04-13T03:18:31.989Z,0
2017-04-13T03:19:31.998Z,0
2017-04-13T03:20:32.305Z,0
2017-04-13T03:21:31.683Z,0
2017-04-13T03:22:32.310Z,0
2017-04-13T03:23:32.337Z,0
2017-04-13T03:24:32.329Z,0
2017-04-13T03:25:32.372Z,0
2017-04-13T03:26:32.018Z,0
2017-04-13T03:27:32.332Z,0
2017-04-13T03:28:32.755Z,0
2017-04-13T03:29:32.342Z,0
2017-04-13T03:30:32.349Z,0
2017-04-13T03:31:32.091Z,0
2017-04-13T03:32:32.042Z,0
2017-04-13T03:33:32.105Z,0
2017-04-13T03:34:32.417Z,0
2017-04-13T03:35:32.060Z,0
2017-04-13T03:36:32.374Z,0
2017-04-13T03:37:32.069Z,0
2017-04-13T03:38:32.382Z,0
2017-04-13T03:39:32.387Z,0
2017-04-13T03:40:32.391Z,0
2017-04-13T03:41:32.394Z,0
2017-04-13T03:42:32.087Z,0
2017-04-13T03:43:32.093Z,0
2017-04-13T03:44:32.457Z,0
2017-04-13T03:45:32.098Z,0
2017-04-13T03:46:32.418Z,0
2017-04-13T03:47:32.108Z,0
2017-04-13T03:48:32.422Z,0
2017-04-13T03:49:32.776Z,0
2017-04-13T03:50:32.167Z,0
2017-04-13T03:51:31.812Z,0
2017-04-13T03:52:32.134Z,0
2017-04-13T03:53:32.140Z,0
2017-04-13T03:54:32.499Z,0
2017-04-13T03:55:32.448Z,0
2017-04-13T03:56:32.453Z,0
2017-04-13T03:57:32.460Z,0
2017-04-13T03:58:32.764Z,0
2017-04-13T03:59:32.156Z,0
2017-04-13T04:00:32.569Z,0
2017-04-13T04:01:32.219Z,0
2017-04-13T04:02:32.174Z,0
2017-04-13T04:03:32.480Z,0
2017-04-13T04:04:32.480Z,0
2017-04-13T04:05:32.540Z,0
2017-04-13T04:06:32.281Z,0
2017-04-13T04:07:32.601Z,0
2017-04-13T04:08:32.191Z,0
2017-04-13T04:09:32.505Z,0
2017-04-13T04:10:32.202Z,0
2017-04-13T04:11:32.205Z,0
2017-04-13T04:12:32.260Z,0
2017-04-13T04:13:32.572Z,0
2017-04-13T04:14:32.219Z,0
2017-04-13T04:15:32.534Z,0
2017-04-13T04:16:32.224Z,0
2017-04-13T04:17:32.546Z,0
2017-04-13T04:18:32.595Z,0
2017-04-13T04:19:32.237Z,0
2017-04-13T04:20:31.986Z,0
2017-04-13T04:21:32.294Z,0
2017-04-13T04:22:32.300Z,0
2017-04-13T04:23:32.963Z,0
2017-04-13T04:24:32.668Z,0
2017-04-13T04:25:32.568Z,0
2017-04-13T04:26:32.626Z,0
2017-04-13T04:27:32.578Z,4
2017-04-13T04:28:32.319Z,0
2017-04-13T04:29:32.324Z,4
2017-04-13T04:30:31.712Z,0
2017-04-13T04:31:32.027Z,0
2017-04-13T04:32:32.342Z,0
2017-04-13T04:33:32.594Z,0
2017-04-13T04:34:32.040Z,4
2017-04-13T04:35:33.813Z,4
2017-04-13T04:36:32.305Z,4
2017-04-13T04:37:32.676Z,4
2017-04-13T04:38:32.728Z,4
2017-04-13T04:39:32.628Z,8
2017-04-13T04:40:32.329Z,8
2017-04-13T04:41:32.378Z,4
2017-04-13T04:42:32.648Z,8
2017-04-13T04:43:32.694Z,8
2017-04-13T04:44:32.343Z,8
2017-04-13T04:45:32.655Z,4
2017-04-13T04:46:32.397Z,8
2017-04-13T04:47:32.089Z,8
2017-04-13T04:48:32.666Z,12
2017-04-13T04:49:32.668Z,12
2017-04-13T04:50:32.467Z,12
2017-04-13T04:51:32.726Z,16
2017-04-13T04:52:32.373Z,24
2017-04-13T04:53:32.374Z,32
2017-04-13T04:54:32.383Z,36
2017-04-13T04:55:32.754Z,60
2017-04-13T04:56:32.435Z,64
2017-04-13T04:57:32.180Z,76
2017-04-13T04:58:32.082Z,84
2017-04-13T04:59:32.713Z,68
2017-04-13T05:00:32.712Z,60
2017-04-13T05:01:32.771Z,56
2017-04-13T05:02:32.773Z,48
2017-04-13T05:03:34.021Z,64
2017-04-13T05:04:32.462Z,60
2017-04-13T05:05:32.150Z,56
2017-04-13T05:06:33.432Z,68
2017-04-13T05:07:32.738Z,88
2017-04-13T05:08:32.427Z,104
2017-04-13T05:09:32.124Z,104
2017-04-13T05:10:32.750Z,92
2017-04-13T05:11:32.789Z,88
2017-04-13T05:12:32.745Z,96
2017-04-13T05:13:32.761Z,104
2017-04-13T05:14:32.768Z,92
2017-04-13T05:15:32.510Z,84
2017-04-13T05:16:32.827Z,80
2017-04-13T05:17:32.773Z,84
2017-04-13T05:18:32.880Z,76
2017-04-13T05:19:32.785Z,80
2017-04-13T05:20:32.786Z,84
2017-04-13T05:21:32.531Z,96
2017-04-13T05:22:32.795Z,112
2017-04-13T05:23:32.793Z,124
2017-04-13T05:24:32.490Z,112
2017-04-13T05:25:32.945Z,128
2017-04-13T05:26:32.746Z,116
2017-04-13T05:27:32.507Z,116
2017-04-13T05:28:32.650Z,112
2017-04-13T05:29:32.509Z,108
2017-04-13T05:30:32.563Z,88
2017-04-13T05:31:32.834Z,80
2017-04-13T05:32:32.522Z,80
2017-04-13T05:33:32.840Z,92
2017-04-13T05:34:32.530Z,112
2017-04-13T05:35:32.900Z,120
2017-04-13T05:36:32.534Z,132
2017-04-13T05:37:32.843Z,120
2017-04-13T05:38:32.902Z,124
2017-04-13T05:39:32.596Z,172
2017-04-13T05:40:32.553Z,208
2017-04-13T05:41:32.245Z,220
2017-04-13T05:42:32.301Z,220
2017-04-13T05:43:32.930Z,248
2017-04-13T05:44:32.566Z,272
2017-04-13T05:45:32.257Z,280
2017-04-13T05:46:32.887Z,300
2017-04-13T05:47:32.891Z,348
2017-04-13T05:48:32.898Z,320
2017-04-13T05:49:32.685Z,344
2017-04-13T05:50:32.902Z,376
2017-04-13T05:51:32.903Z,392
2017-04-13T05:52:32.336Z,368
2017-04-13T05:53:32.963Z,388
2017-04-13T05:54:32.602Z,388
2017-04-13T05:55:32.709Z,376
2017-04-13T05:56:32.926Z,360
2017-04-13T05:57:32.670Z,376
2017-04-13T05:58:32.366Z,400
2017-04-13T05:59:32.677Z,408
2017-04-13T06:00:32.937Z,408
2017-04-13T06:01:32.695Z,440
2017-04-13T06:02:32.329Z,420
2017-04-13T06:03:32.650Z,372
2017-04-13T06:04:32.695Z,356
2017-04-13T06:05:32.651Z,364
2017-04-13T06:06:32.658Z,312
2017-04-13T06:07:33.723Z,312
2017-04-13T06:08:32.716Z,296
2017-04-13T06:09:33.025Z,296
2017-04-13T06:10:33.084Z,296
2017-04-13T06:11:32.995Z,328
2017-04-13T06:12:33.048Z,320
2017-04-13T06:13:33.001Z,260
2017-04-13T06:14:32.738Z,240
2017-04-13T06:15:32.386Z,236
2017-04-13T06:16:33.615Z,284
2017-04-13T06:17:33.063Z,360
2017-04-13T06:18:32.730Z,324
2017-04-13T06:19:33.066Z,380
2017-04-13T06:20:33.024Z,424
2017-04-13T06:21:32.762Z,376
2017-04-13T06:22:32.721Z,364
2017-04-13T06:23:33.036Z,356
2017-04-13T06:24:33.090Z,368
2017-04-13T06:25:32.986Z,356
2017-04-13T06:26:33.049Z,332
2017-04-13T06:27:33.058Z,368
2017-04-13T06:28:32.748Z,420
2017-04-13T06:29:33.364Z,336
2017-04-13T06:30:33.069Z,304
2017-04-13T06:31:32.808Z,300
2017-04-13T06:32:32.860Z,288
2017-04-13T06:33:33.126Z,228
2017-04-13T06:34:32.771Z,212
2017-04-13T06:35:33.083Z,260
2017-04-13T06:36:32.775Z,300
2017-04-13T06:37:33.092Z,352
2017-04-13T06:38:33.089Z,528
2017-04-13T06:39:33.095Z,580
2017-04-13T06:40:33.213Z,492
2017-04-13T06:41:32.847Z,440
2017-04-13T06:42:33.116Z,484
2017-04-13T06:43:32.803Z,388
2017-04-13T06:44:32.855Z,404
2017-04-13T06:45:33.122Z,420
2017-04-13T06:46:33.275Z,368
2017-04-13T06:47:32.822Z,336
2017-04-13T06:48:33.132Z,372
2017-04-13T06:49:32.930Z,372
2017-04-13T06:50:33.195Z,312
2017-04-13T06:51:32.886Z,272
2017-04-13T06:52:32.891Z,352
2017-04-13T06:53:32.843Z,420
2017-04-13T06:54:33.160Z,464
2017-04-13T06:55:33.261Z,440
2017-04-13T06:56:32.867Z,452
2017-04-13T06:57:33.107Z,456
2017-04-13T06:58:32.709Z,452
2017-04-13T06:59:33.481Z,452
2017-04-13T07:00:33.188Z,440
2017-04-13T07:01:32.672Z,408
2017-04-13T07:02:32.886Z,388
2017-04-13T07:03:33.200Z,492
2017-04-13T07:04:32.900Z,436
2017-04-13T07:05:32.904Z,416
2017-04-13T07:06:32.644Z,380
2017-04-13T07:07:32.917Z,348
2017-04-13T07:08:32.970Z,372
2017-04-13T07:09:33.230Z,376
2017-04-13T07:10:33.937Z,348
2017-04-13T07:11:33.395Z,328
2017-04-13T07:12:33.306Z,304
2017-04-13T07:13:33.295Z,284
2017-04-13T07:14:33.005Z,340
2017-04-13T07:15:32.961Z,356
2017-04-13T07:16:33.018Z,400
2017-04-13T07:17:33.283Z,400
2017-04-13T07:18:33.287Z,464
2017-04-13T07:19:33.291Z,396
2017-04-13T07:20:33.294Z,396
2017-04-13T07:21:33.302Z,420
2017-04-13T07:22:33.369Z,416
2017-04-13T07:23:34.070Z,376
2017-04-13T07:24:33.320Z,408
2017-04-13T07:25:33.529Z,492
2017-04-13T07:26:33.436Z,588
2017-04-13T07:27:32.768Z,512
2017-04-13T07:28:33.034Z,448
2017-04-13T07:29:33.398Z,416
2017-04-13T07:30:33.355Z,420
2017-04-13T07:31:33.362Z,476
2017-04-13T07:32:33.053Z,480
2017-04-13T07:33:33.065Z,456
2017-04-13T07:34:33.116Z,416
2017-04-13T07:35:33.415Z,444
2017-04-13T07:36:33.130Z,412
2017-04-13T07:37:32.821Z,380
2017-04-13T07:38:33.088Z,380
2017-04-13T07:39:33.144Z,372
2017-04-13T07:40:32.842Z,368
2017-04-13T07:41:33.158Z,360
2017-04-13T07:42:33.366Z,400
2017-04-13T07:43:33.529Z,424
2017-04-13T07:44:33.128Z,352
2017-04-13T07:45:33.490Z,264
2017-04-13T07:46:33.505Z,276
2017-04-13T07:47:32.834Z,340
2017-04-13T07:48:33.204Z,376
2017-04-13T07:49:33.209Z,340
2017-04-13T07:50:32.540Z,380
2017-04-13T07:51:33.543Z,472
2017-04-13T07:52:33.492Z,516
2017-04-13T07:53:33.229Z,448
2017-04-13T07:54:33.239Z,344
2017-04-13T07:55:33.195Z,364
2017-04-13T07:56:32.943Z,464
2017-04-13T07:57:33.569Z,548
2017-04-13T07:58:33.362Z,564
2017-04-13T07:59:33.570Z,592
2017-04-13T08:00:33.281Z,668
2017-04-13T08:01:33.544Z,696
2017-04-13T08:02:33.793Z,768
2017-04-13T08:03:33.606Z,876
2017-04-13T08:04:33.615Z,988
2017-04-13T08:05:33.309Z,1016
2017-04-13T08:06:33.322Z,920
2017-04-13T08:07:33.013Z,804
2017-04-13T08:08:33.309Z,728
2017-04-13T08:09:34.094Z,588
2017-04-13T08:10:33.604Z,664
2017-04-13T08:11:33.662Z,828
2017-04-13T08:12:33.044Z,860
2017-04-13T08:13:33.108Z,732
2017-04-13T08:14:33.630Z,680
2017-04-13T08:15:33.640Z,684
2017-04-13T08:16:33.336Z,724
2017-04-13T08:17:33.135Z,808
2017-04-13T08:18:33.702Z,940
2017-04-13T08:19:33.763Z,956
2017-04-13T08:20:33.719Z,804
2017-04-13T08:21:33.406Z,648
2017-04-13T08:22:33.375Z,668
2017-04-13T08:23:33.383Z,784
2017-04-13T08:24:33.391Z,808
2017-04-13T08:25:33.839Z,744
2017-04-13T08:26:33.501Z,748
2017-04-13T08:27:33.097Z,796
2017-04-13T08:28:33.734Z,876
2017-04-13T08:29:33.172Z,840
2017-04-13T08:30:33.744Z,776
2017-04-13T08:31:34.047Z,752
2017-04-13T08:32:33.819Z,752
2017-04-13T08:33:33.866Z,848
2017-04-13T08:34:33.468Z,956
2017-04-13T08:35:33.462Z,964
2017-04-13T08:36:33.471Z,1020
2017-04-13T08:37:33.184Z,1068
2017-04-13T08:38:33.585Z,908
2017-04-13T08:39:33.802Z,836
2017-04-13T08:40:33.243Z,888
2017-04-13T08:41:33.554Z,932
2017-04-13T08:42:33.833Z,828
2017-04-13T08:43:33.216Z,840
2017-04-13T08:44:33.584Z,1036
2017-04-13T08:45:33.534Z,1384
2017-04-13T08:46:33.231Z,1776
2017-04-13T08:47:33.240Z,1648
2017-04-13T08:48:33.976Z,1312
2017-04-13T08:49:33.926Z,1248
2017-04-13T08:50:33.935Z,1076
2017-04-13T08:51:33.891Z,1204
2017-04-13T08:52:34.045Z,1508
2017-04-13T08:53:33.691Z,1508
2017-04-13T08:54:33.961Z,1504
2017-04-13T08:55:33.917Z,1404
2017-04-13T08:56:33.303Z,1172
2017-04-13T08:57:33.623Z,776
2017-04-13T08:58:33.624Z,608
2017-04-13T08:59:33.635Z,500
2017-04-13T09:00:33.643Z,456
2017-04-13T09:01:33.859Z,508
2017-04-13T09:02:33.660Z,564
2017-04-13T09:03:34.062Z,536
2017-04-13T09:04:33.671Z,580
2017-04-13T09:05:33.732Z,672
2017-04-13T09:06:33.689Z,792
2017-04-13T09:07:33.388Z,936
2017-04-13T09:08:34.064Z,904
2017-04-13T09:09:34.030Z,848
2017-04-13T09:10:33.719Z,696
2017-04-13T09:11:33.777Z,612
2017-04-13T09:12:34.040Z,436
2017-04-13T09:13:34.148Z,376
2017-04-13T09:14:33.844Z,460
2017-04-13T09:15:34.113Z,604
2017-04-13T09:16:33.756Z,660
2017-04-13T09:17:34.132Z,608
2017-04-13T09:18:34.232Z,572
2017-04-13T09:19:34.093Z,556
2017-04-13T09:20:34.145Z,544
2017-04-13T09:21:33.843Z,500
2017-04-13T09:22:33.807Z,528
2017-04-13T09:23:34.175Z,524
2017-04-13T09:24:34.181Z,484
2017-04-13T09:25:34.185Z,460
2017-04-13T09:26:34.444Z,404
2017-04-13T09:27:34.198Z,340
2017-04-13T09:29:33.902Z,412
2017-04-13T09:30:33.861Z,504
2017-04-13T09:31:33.862Z,616
2017-04-13T09:32:33.875Z,720
2017-04-13T09:33:34.281Z,836
2017-04-13T09:34:33.579Z,900
2017-04-13T09:35:34.255Z,892
2017-04-13T09:36:34.914Z,860
2017-04-13T09:37:34.283Z,760
2017-04-13T09:38:33.603Z,748
2017-04-13T09:39:33.973Z,768
2017-04-13T09:40:34.248Z,828
2017-04-13T09:41:35.100Z,908
2017-04-13T09:42:34.290Z,976
2017-04-13T09:43:34.052Z,1052
2017-04-13T09:44:34.272Z,1108
2017-04-13T09:45:33.705Z,1216
2017-04-13T09:46:35.183Z,1248
2017-04-13T09:47:33.979Z,1284
2017-04-13T09:48:33.731Z,1336
2017-04-13T09:49:34.352Z,1312
2017-04-13T09:50:34.311Z,1320
2017-04-13T09:51:34.059Z,1288
2017-04-13T09:52:34.379Z,1280
2017-04-13T09:53:34.333Z,1352
2017-04-13T09:54:34.544Z,1352
2017-04-13T09:55:34.350Z,1208
2017-04-13T09:56:34.357Z,1104
2017-04-13T09:57:34.057Z,1208
2017-04-13T09:58:34.167Z,1196
2017-04-13T09:59:34.379Z,1148
2017-04-13T10:00:33.765Z,1080
2017-04-13T10:01:34.081Z,1056
2017-04-13T10:02:34.142Z,972
2017-04-13T10:03:34.147Z,944
2017-04-13T10:04:34.109Z,932
2017-04-13T10:05:34.114Z,1012
2017-04-13T10:06:34.121Z,992
2017-04-13T10:07:33.829Z,1056
2017-04-13T10:08:34.440Z,1028
2017-04-13T10:09:34.136Z,1044
2017-04-13T10:10:34.510Z,1076
2017-04-13T10:11:34.468Z,1508
2017-04-13T10:12:33.908Z,2004
2017-04-13T10:13:34.223Z,1612
2017-04-13T10:14:34.226Z,1876
2017-04-13T10:15:34.843Z,2336
2017-04-13T10:16:34.500Z,2112
2017-04-13T10:17:34.511Z,2528
2017-04-13T10:18:34.511Z,2196
2017-04-13T10:19:34.571Z,1708
2017-04-13T10:20:34.272Z,1576
2017-04-13T10:21:34.228Z,1420
2017-04-13T10:22:34.015Z,1260
2017-04-13T10:23:33.619Z,1152
2017-04-13T10:24:33.993Z,1120
2017-04-13T10:25:34.969Z,1056
2017-04-13T10:26:34.577Z,948
2017-04-13T10:27:33.957Z,904
2017-04-13T10:28:34.276Z,940
2017-04-13T10:29:34.997Z,968
2017-04-13T10:30:34.296Z,988
2017-04-13T10:31:34.299Z,1056
2017-04-13T10:32:34.373Z,1056
2017-04-13T10:33:34.375Z,880
2017-04-13T10:34:34.372Z,776
2017-04-13T10:35:34.344Z,668
2017-04-13T10:36:34.342Z,600
2017-04-13T10:37:34.397Z,584
2017-04-13T10:38:34.762Z,608
2017-04-13T10:39:34.408Z,572
2017-04-13T10:40:34.417Z,516
2017-04-13T10:41:34.373Z,480
2017-04-13T10:42:34.433Z,456
2017-04-13T10:43:34.436Z,440
2017-04-13T10:44:34.395Z,412
2017-04-13T10:45:34.547Z,356
2017-04-13T10:46:34.412Z,312
2017-04-13T10:47:34.518Z,280
2017-04-13T10:48:34.830Z,256
2017-04-13T10:49:35.629Z,244
2017-04-13T10:50:34.800Z,244
2017-04-13T10:51:34.750Z,244
2017-04-13T10:52:34.769Z,236
2017-04-13T10:53:34.515Z,236
2017-04-13T10:54:34.834Z,232
2017-04-13T10:55:34.794Z,240
2017-04-13T10:56:34.789Z,256
2017-04-13T10:57:34.797Z,260
2017-04-13T10:58:34.231Z,272
2017-04-13T10:59:34.502Z,288
2017-04-13T11:00:34.554Z,296
2017-04-13T11:01:34.257Z,332
2017-04-13T11:02:34.526Z,368
2017-04-13T11:03:34.582Z,424
2017-04-13T11:04:34.909Z,480
2017-04-13T11:05:34.544Z,528
2017-04-13T11:06:34.293Z,620
2017-04-13T11:07:34.916Z,716
2017-04-13T11:08:34.876Z,784
2017-04-13T11:09:34.571Z,824
2017-04-13T11:10:34.943Z,824
2017-04-13T11:11:34.585Z,760
2017-04-13T11:12:34.966Z,696
2017-04-13T11:13:34.650Z,652
2017-04-13T11:14:34.605Z,632
2017-04-13T11:15:34.926Z,616
2017-04-13T11:16:34.949Z,584
2017-04-13T11:17:34.952Z,596
2017-04-13T11:18:36.142Z,628
2017-04-13T11:19:35.005Z,656
2017-04-13T11:20:34.389Z,720
2017-04-13T11:21:34.969Z,796
2017-04-13T11:22:35.076Z,888
2017-04-13T11:23:34.399Z,964
2017-04-13T11:24:34.372Z,1024
2017-04-13T11:25:34.690Z,1064
2017-04-13T11:26:35.010Z,1108
2017-04-13T11:27:35.068Z,1188
2017-04-13T11:28:35.277Z,1192
2017-04-13T11:29:35.029Z,1184
2017-04-13T11:30:34.509Z,1180
2017-04-13T11:31:34.470Z,1152
2017-04-13T11:32:35.049Z,1200
2017-04-13T11:33:34.438Z,1280
2017-04-13T11:34:35.302Z,1772
2017-04-13T11:35:34.861Z,1284
2017-04-13T11:36:34.921Z,1268
2017-04-13T11:37:34.521Z,1252
2017-04-13T11:38:34.787Z,1240
2017-04-13T11:39:35.100Z,1164
2017-04-13T11:40:34.802Z,1028
2017-04-13T11:41:35.269Z,896
2017-04-13T11:42:35.606Z,776
2017-04-13T11:43:35.132Z,692
2017-04-13T11:44:34.878Z,696
2017-04-13T11:45:34.835Z,720
2017-04-13T11:46:34.949Z,688
2017-04-13T11:47:35.370Z,604
2017-04-13T11:48:35.347Z,580
2017-04-13T11:49:35.529Z,692
2017-04-13T11:50:34.565Z,868
2017-04-13T11:51:34.928Z,1008
2017-04-13T11:52:35.036Z,1124
2017-04-13T11:53:35.203Z,1208
2017-04-13T11:54:35.264Z,1312
2017-04-13T11:55:35.270Z,1380
2017-04-13T11:56:34.655Z,1432
2017-04-13T11:57:34.973Z,1464
2017-04-13T11:58:35.030Z,1716
2017-04-13T11:59:35.214Z,1456
2017-04-13T12:00:35.004Z,1476
2017-04-13T12:01:35.345Z,1484
2017-04-13T12:02:36.967Z,1536
2017-04-13T12:03:34.700Z,1856
2017-04-13T12:04:34.964Z,1880
2017-04-13T12:05:34.980Z,1788
2017-04-13T12:06:35.342Z,1788
2017-04-13T12:07:35.348Z,1348
2017-04-13T12:08:34.785Z,1320
2017-04-13T12:09:34.689Z,1284
2017-04-13T12:10:35.103Z,1292
2017-04-13T12:11:35.063Z,1256
2017-04-13T12:12:37.075Z,1184
2017-04-13T12:13:35.333Z,1160
2017-04-13T12:14:35.400Z,1092
2017-04-13T12:15:35.356Z,1004
2017-04-13T12:16:34.832Z,896
2017-04-13T12:17:35.050Z,748
2017-04-13T12:18:35.465Z,616
2017-04-13T12:19:35.380Z,564
2017-04-13T12:20:35.380Z,564
2017-04-13T12:21:34.815Z,552
2017-04-13T12:22:34.534Z,592
2017-04-13T12:23:35.404Z,660
2017-04-13T12:24:34.786Z,712
2017-04-13T12:25:35.411Z,776
2017-04-13T12:26:35.737Z,792
2017-04-13T12:27:34.816Z,828
2017-04-13T12:28:35.437Z,880
2017-04-13T12:29:34.822Z,812
2017-04-13T12:30:35.503Z,724
2017-04-13T12:31:35.144Z,684
2017-04-13T12:32:35.200Z,664
2017-04-13T12:33:35.207Z,608
2017-04-13T12:35:52.358Z,520
2017-04-13T12:36:35.233Z,480
2017-04-13T12:37:35.230Z,444
2017-04-13T12:38:35.185Z,444
2017-04-13T12:39:37.049Z,500
2017-04-13T12:40:35.311Z,496
2017-04-13T12:41:35.574Z,488
2017-04-13T12:42:35.591Z,524
2017-04-13T12:43:35.224Z,508
2017-04-13T12:44:35.542Z,556
2017-04-13T12:45:35.703Z,640
2017-04-13T12:46:35.247Z,748
2017-04-13T12:47:35.255Z,776
2017-04-13T12:48:35.573Z,844
2017-04-13T12:49:36.971Z,772
2017-04-13T12:50:34.962Z,684
2017-04-13T12:51:35.391Z,592
2017-04-13T12:52:35.603Z,552
2017-04-13T12:53:35.297Z,524
2017-04-13T12:54:35.613Z,500
2017-04-13T12:55:35.057Z,496
2017-04-13T12:56:35.017Z,468
2017-04-13T12:57:35.637Z,464
2017-04-13T12:58:35.381Z,460
2017-04-13T12:59:35.650Z,436
2017-04-13T13:00:35.344Z,416
2017-04-13T13:01:35.669Z,400
2017-04-13T13:02:35.413Z,388
2017-04-13T13:03:35.390Z,372
2017-04-13T13:04:35.065Z,360
2017-04-13T13:05:35.492Z,356
2017-04-13T13:06:35.393Z,372
2017-04-13T13:07:35.443Z,404
2017-04-13T13:08:35.140Z,432
2017-04-13T13:09:36.170Z,448
2017-04-13T13:10:35.478Z,480
2017-04-13T13:11:35.735Z,516
2017-04-13T13:12:36.321Z,552
2017-04-13T13:13:35.495Z,600
2017-04-13T13:14:35.756Z,664
2017-04-13T13:15:35.500Z,764
2017-04-13T13:16:35.771Z,872
2017-04-13T13:17:35.777Z,960
2017-04-13T13:18:35.782Z,948
2017-04-13T13:19:35.545Z,936
2017-04-13T13:20:35.534Z,896
2017-04-13T13:21:35.924Z,876
2017-04-13T13:22:36.860Z,860
2017-04-13T13:23:35.562Z,836
2017-04-13T13:24:35.868Z,816
2017-04-13T13:25:35.833Z,792
2017-04-13T13:26:35.993Z,780
2017-04-13T13:27:35.594Z,744
2017-04-13T13:28:35.859Z,704
2017-04-13T13:29:35.607Z,668
2017-04-13T13:30:35.871Z,640
2017-04-13T13:31:35.257Z,644
2017-04-13T13:32:35.002Z,676
2017-04-13T13:33:35.948Z,696
2017-04-13T13:34:35.643Z,712
2017-04-13T13:35:35.605Z,756
2017-04-13T13:36:35.975Z,820
2017-04-13T13:37:35.975Z,876
2017-04-13T13:38:36.041Z,912
2017-04-13T13:39:35.725Z,912
2017-04-13T13:40:36.054Z,856
2017-04-13T13:41:35.956Z,840
2017-04-13T13:42:35.654Z,852
2017-04-13T13:43:35.657Z,852
2017-04-13T13:44:36.066Z,788
2017-04-13T13:45:36.143Z,792
2017-04-13T13:46:36.056Z,800
2017-04-13T13:47:35.999Z,836
2017-04-13T13:48:35.708Z,848
2017-04-13T13:49:35.391Z,792
2017-04-13T13:50:36.074Z,720
2017-04-13T13:51:36.031Z,760
2017-04-13T13:52:35.723Z,868
2017-04-13T13:53:36.051Z,932
2017-04-13T13:54:35.795Z,944
2017-04-13T13:55:36.067Z,928
2017-04-13T13:56:35.753Z,912
2017-04-13T13:57:36.230Z,844
2017-04-13T13:58:35.461Z,812
2017-04-13T13:59:35.515Z,780
2017-04-13T14:00:37.648Z,732
2017-04-13T14:01:36.100Z,716
2017-04-13T14:02:35.847Z,660
2017-04-13T14:03:36.131Z,616
2017-04-13T14:04:35.828Z,580
2017-04-13T14:05:35.921Z,568
2017-04-13T14:06:36.143Z,580
2017-04-13T14:07:36.241Z,592
2017-04-13T14:08:36.200Z,600